sensor_id;sensor_type;location;lat;lon;timestamp;pressure;altitude;pressure_sealevel;temperature;humidity
59493;BME280;45497;43.996;22.876;2022-07-29T00:01:47;101163.09;;;24.99;55.21
59493;BME280;45497;43.996;22.876;2022-07-29T00:04:13;101158.78;;;24.98;55.04
59493;BME280;45497;43.996;22.876;2022-07-29T00:06:39;101161.19;;;24.94;55.28
59493;BME280;45497;43.996;22.876;2022-07-29T00:09:05;101166.34;;;24.96;55.41
59493;BME280;45497;43.996;22.876;2022-07-29T00:11:30;101167.66;;;24.93;55.32
59493;BME280;45497;43.996;22.876;2022-07-29T00:13:56;101178.75;;;24.92;55.62
59493;BME280;45497;43.996;22.876;2022-07-29T00:16:22;101172.53;;;24.91;55.81
59493;BME280;45497;43.996;22.876;2022-07-29T00:18:49;101180.34;;;24.88;56.04
59493;BME280;45497;43.996;22.876;2022-07-29T00:21:15;101181.69;;;24.85;55.74
59493;BME280;45497;43.996;22.876;2022-07-29T00:23:40;101180.53;;;24.81;55.62
59493;BME280;45497;43.996;22.876;2022-07-29T00:26:06;101172.09;;;24.77;55.53
59493;BME280;45497;43.996;22.876;2022-07-29T00:28:32;101170.41;;;24.71;55.35
59493;BME280;45497;43.996;22.876;2022-07-29T00:30:57;101183.16;;;24.71;55.46
59493;BME280;45497;43.996;22.876;2022-07-29T00:33:23;101179.28;;;24.67;55.60
59493;BME280;45497;43.996;22.876;2022-07-29T00:35:48;101172.75;;;24.63;55.60
59493;BME280;45497;43.996;22.876;2022-07-29T00:38:18;101165.94;;;24.60;55.54
59493;BME280;45497;43.996;22.876;2022-07-29T00:40:44;101155.66;;;24.62;55.83
59493;BME280;45497;43.996;22.876;2022-07-29T00:43:11;101149.13;;;24.58;55.81
59493;BME280;45497;43.996;22.876;2022-07-29T00:45:37;101145.31;;;24.59;55.79
59493;BME280;45497;43.996;22.876;2022-07-29T00:48:03;101155.09;;;24.60;55.84
59493;BME280;45497;43.996;22.876;2022-07-29T00:50:30;101145.00;;;24.55;55.55
59493;BME280;45497;43.996;22.876;2022-07-29T00:52:56;101160.72;;;24.53;55.70
59493;BME280;45497;43.996;22.876;2022-07-29T00:55:22;101163.88;;;24.50;55.74
59493;BME280;45497;43.996;22.876;2022-07-29T00:57:48;101152.97;;;24.45;55.77
59493;BME280;45497;43.996;22.876;2022-07-29T01:00:19;101162.44;;;24.42;56.27
59493;BME280;45497;43.996;22.876;2022-07-29T01:02:46;101150.53;;;24.43;55.89
59493;BME280;45497;43.996;22.876;2022-07-29T01:05:20;101157.25;;;24.41;55.96
59493;BME280;45497;43.996;22.876;2022-07-29T01:07:49;101154.25;;;24.37;55.86
59493;BME280;45497;43.996;22.876;2022-07-29T01:10:16;101150.97;;;24.35;56.24
59493;BME280;45497;43.996;22.876;2022-07-29T01:12:44;101146.66;;;24.39;56.29
59493;BME280;45497;43.996;22.876;2022-07-29T01:15:11;101154.56;;;24.41;56.26
59493;BME280;45497;43.996;22.876;2022-07-29T01:18:12;101149.38;;;24.39;56.15
59493;BME280;45497;43.996;22.876;2022-07-29T01:29:21;101156.94;;;24.37;55.99
59493;BME280;45497;43.996;22.876;2022-07-29T01:31:56;101166.47;;;24.40;56.14
59493;BME280;45497;43.996;22.876;2022-07-29T01:34:56;101163.78;;;24.40;56.32
59493;BME280;45497;43.996;22.876;2022-07-29T01:37:37;101150.47;;;24.38;56.10
59493;BME280;45497;43.996;22.876;2022-07-29T01:40:11;101150.47;;;24.38;56.33
59493;BME280;45497;43.996;22.876;2022-07-29T01:42:42;101154.25;;;24.37;56.13
59493;BME280;45497;43.996;22.876;2022-07-29T01:45:15;101156.38;;;24.35;56.11
59493;BME280;45497;43.996;22.876;2022-07-29T01:47:46;101161.81;;;24.35;56.29
59493;BME280;45497;43.996;22.876;2022-07-29T01:50:17;101159.59;;;24.32;56.45
59493;BME280;45497;43.996;22.876;2022-07-29T01:52:59;101153.84;;;24.29;56.21
59493;BME280;45497;43.996;22.876;2022-07-29T01:55:28;101160.44;;;24.33;56.39
59493;BME280;45497;43.996;22.876;2022-07-29T01:57:57;101149.31;;;24.34;56.46
59493;BME280;45497;43.996;22.876;2022-07-29T02:00:25;101152.03;;;24.34;56.52
59493;BME280;45497;43.996;22.876;2022-07-29T02:02:53;101144.16;;;24.33;56.35
59493;BME280;45497;43.996;22.876;2022-07-29T02:05:21;101142.03;;;24.35;56.48
59493;BME280;45497;43.996;22.876;2022-07-29T02:07:49;101153.09;;;24.33;56.40
59493;BME280;45497;43.996;22.876;2022-07-29T02:10:20;101156.06;;;24.32;56.23
59493;BME280;45497;43.996;22.876;2022-07-29T02:12:47;101146.88;;;24.33;56.43
59493;BME280;45497;43.996;22.876;2022-07-29T02:15:14;101140.38;;;24.34;56.42
59493;BME280;45497;43.996;22.876;2022-07-29T02:17:44;101144.97;;;24.33;56.44
59493;BME280;45497;43.996;22.876;2022-07-29T02:20:12;101139.06;;;24.36;56.42
59493;BME280;45497;43.996;22.876;2022-07-29T02:22:39;101144.22;;;24.38;56.49
59493;BME280;45497;43.996;22.876;2022-07-29T02:25:07;101138.28;;;24.41;56.50
59493;BME280;45497;43.996;22.876;2022-07-29T02:27:34;101139.63;;;24.38;56.27
59493;BME280;45497;43.996;22.876;2022-07-29T02:30:02;101138.78;;;24.38;56.32
59493;BME280;45497;43.996;22.876;2022-07-29T02:32:29;101133.06;;;24.34;56.11
59493;BME280;45497;43.996;22.876;2022-07-29T02:34:56;101134.72;;;24.35;56.50
59493;BME280;45497;43.996;22.876;2022-07-29T02:37:23;101143.97;;;24.39;56.59
59493;BME280;45497;43.996;22.876;2022-07-29T02:39:52;101137.00;;;24.43;56.56
59493;BME280;45497;43.996;22.876;2022-07-29T02:42:21;101136.41;;;24.41;56.58
59493;BME280;45497;43.996;22.876;2022-07-29T02:44:48;101134.84;;;24.46;56.57
59493;BME280;45497;43.996;22.876;2022-07-29T02:47:45;101144.84;;;24.45;56.63
59493;BME280;45497;43.996;22.876;2022-07-29T02:50:15;101144.84;;;24.45;56.70
59493;BME280;45497;43.996;22.876;2022-07-29T02:53:11;101152.97;;;24.45;56.56
59493;BME280;45497;43.996;22.876;2022-07-29T03:00:56;101161.03;;;24.57;56.36
59493;BME280;45497;43.996;22.876;2022-07-29T03:03:26;101169.97;;;24.57;56.31
59493;BME280;45497;43.996;22.876;2022-07-29T03:05:56;101171.88;;;24.57;56.35
59493;BME280;45497;43.996;22.876;2022-07-29T03:08:23;101174.06;;;24.60;56.32
59493;BME280;45497;43.996;22.876;2022-07-29T03:10:50;101168.91;;;24.58;56.33
59493;BME280;45497;43.996;22.876;2022-07-29T03:13:16;101168.34;;;24.56;56.43
59493;BME280;45497;43.996;22.876;2022-07-29T03:15:44;101168.03;;;24.53;56.74
59493;BME280;45497;43.996;22.876;2022-07-29T03:18:10;101169.53;;;24.49;56.78
59493;BME280;45497;43.996;22.876;2022-07-29T03:20:37;101174.72;;;24.50;56.88
59493;BME280;45497;43.996;22.876;2022-07-29T03:23:04;101171.53;;;24.53;56.80
59493;BME280;45497;43.996;22.876;2022-07-29T03:25:29;101167.50;;;24.56;56.63
59493;BME280;45497;43.996;22.876;2022-07-29T03:27:55;101165.38;;;24.58;56.97
59493;BME280;45497;43.996;22.876;2022-07-29T03:30:22;101151.00;;;24.57;57.04
59493;BME280;45497;43.996;22.876;2022-07-29T03:32:49;101148.84;;;24.59;57.07
59493;BME280;45497;43.996;22.876;2022-07-29T03:35:15;101144.25;;;24.60;57.19
59493;BME280;45497;43.996;22.876;2022-07-29T03:37:42;101153.50;;;24.64;57.10
59493;BME280;45497;43.996;22.876;2022-07-29T03:40:10;101153.81;;;24.68;57.05
59493;BME280;45497;43.996;22.876;2022-07-29T03:42:39;101160.31;;;24.67;57.17
59493;BME280;45497;43.996;22.876;2022-07-29T03:45:07;101154.63;;;24.68;57.07
59493;BME280;45497;43.996;22.876;2022-07-29T03:47:40;101149.22;;;24.68;57.28
59493;BME280;45497;43.996;22.876;2022-07-29T03:50:10;101159.81;;;24.70;57.07
59493;BME280;45497;43.996;22.876;2022-07-29T03:52:37;101157.41;;;24.73;57.30
59493;BME280;45497;43.996;22.876;2022-07-29T03:55:03;101151.19;;;24.73;57.24
59493;BME280;45497;43.996;22.876;2022-07-29T03:57:32;101153.63;;;24.74;57.12
59493;BME280;45497;43.996;22.876;2022-07-29T03:59:58;101151.75;;;24.75;57.20
59493;BME280;45497;43.996;22.876;2022-07-29T04:02:26;101152.31;;;24.77;57.50
59493;BME280;45497;43.996;22.876;2022-07-29T04:04:52;101156.09;;;24.76;57.24
59493;BME280;45497;43.996;22.876;2022-07-29T04:07:17;101155.81;;;24.77;56.98
59493;BME280;45497;43.996;22.876;2022-07-29T04:09:43;101156.97;;;24.82;57.26
59493;BME280;45497;43.996;22.876;2022-07-29T04:12:09;101147.25;;;24.86;57.14
59493;BME280;45497;43.996;22.876;2022-07-29T04:14:35;101153.28;;;24.93;57.22
59493;BME280;45497;43.996;22.876;2022-07-29T04:17:01;101149.03;;;25.02;57.03
59493;BME280;45497;43.996;22.876;2022-07-29T04:19:29;101152.66;;;25.13;56.54
59493;BME280;45497;43.996;22.876;2022-07-29T04:21:54;101153.84;;;25.22;56.81
59493;BME280;45497;43.996;22.876;2022-07-29T04:24:20;101153.16;;;25.32;56.53
59493;BME280;45497;43.996;22.876;2022-07-29T04:26:46;101156.19;;;25.41;56.12
59493;BME280;45497;43.996;22.876;2022-07-29T04:29:12;101154.06;;;25.48;55.88
59493;BME280;45497;43.996;22.876;2022-07-29T04:31:40;101158.75;;;25.52;56.12
59493;BME280;45497;43.996;22.876;2022-07-29T04:34:06;101162.63;;;25.62;56.11
59493;BME280;45497;43.996;22.876;2022-07-29T04:36:31;101162.34;;;25.63;56.13
59493;BME280;45497;43.996;22.876;2022-07-29T04:38:57;101166.19;;;25.67;55.85
59493;BME280;45497;43.996;22.876;2022-07-29T04:41:23;101176.56;;;25.75;55.73
59493;BME280;45497;43.996;22.876;2022-07-29T04:43:48;101175.22;;;25.78;55.48
59493;BME280;45497;43.996;22.876;2022-07-29T04:46:14;101187.19;;;26.20;54.38
59493;BME280;45497;43.996;22.876;2022-07-29T04:48:39;101176.53;;;26.08;54.97
59493;BME280;45497;43.996;22.876;2022-07-29T04:51:05;101177.03;;;26.00;55.20
59493;BME280;45497;43.996;22.876;2022-07-29T04:53:30;101183.00;;;25.97;55.49
59493;BME280;45497;43.996;22.876;2022-07-29T04:55:56;101190.56;;;25.94;54.71
59493;BME280;45497;43.996;22.876;2022-07-29T04:58:21;101195.22;;;25.99;54.78
59493;BME280;45497;43.996;22.876;2022-07-29T05:00:50;101198.25;;;26.03;54.69
59493;BME280;45497;43.996;22.876;2022-07-29T05:03:17;101189.56;;;26.06;54.74
59493;BME280;45497;43.996;22.876;2022-07-29T05:05:42;101195.03;;;26.11;54.27
59493;BME280;45497;43.996;22.876;2022-07-29T05:08:08;101193.13;;;26.11;54.52
59493;BME280;45497;43.996;22.876;2022-07-29T05:10:34;101199.19;;;26.24;53.91
59493;BME280;45497;43.996;22.876;2022-07-29T05:13:04;101201.13;;;26.33;54.03
59493;BME280;45497;43.996;22.876;2022-07-29T05:15:31;101199.28;;;26.44;53.99
59493;BME280;45497;43.996;22.876;2022-07-29T05:17:56;101203.16;;;26.59;53.59
59493;BME280;45497;43.996;22.876;2022-07-29T05:20:22;101207.88;;;26.79;53.06
59493;BME280;45497;43.996;22.876;2022-07-29T05:22:51;101198.69;;;26.95;52.88
59493;BME280;45497;43.996;22.876;2022-07-29T05:25:17;101204.72;;;27.13;52.42
59493;BME280;45497;43.996;22.876;2022-07-29T05:27:43;101208.31;;;27.29;52.18
59493;BME280;45497;43.996;22.876;2022-07-29T05:30:09;101209.44;;;27.48;51.81
59493;BME280;45497;43.996;22.876;2022-07-29T05:32:34;101205.31;;;27.71;50.75
59493;BME280;45497;43.996;22.876;2022-07-29T05:35:00;101204.66;;;28.46;49.49
59493;BME280;45497;43.996;22.876;2022-07-29T05:37:25;101196.97;;;28.69;48.67
59493;BME280;45497;43.996;22.876;2022-07-29T05:39:52;101205.22;;;29.03;47.95
59493;BME280;45497;43.996;22.876;2022-07-29T05:42:18;101197.81;;;30.60;44.58
59493;BME280;45497;43.996;22.876;2022-07-29T05:45:02;101203.38;;;30.74;44.24
59493;BME280;45497;43.996;22.876;2022-07-29T05:47:28;101203.72;;;31.11;43.20
59493;BME280;45497;43.996;22.876;2022-07-29T05:49:53;101199.22;;;31.53;42.10
59493;BME280;45497;43.996;22.876;2022-07-29T05:52:19;101200.78;;;31.40;42.46
59493;BME280;45497;43.996;22.876;2022-07-29T05:54:45;101213.38;;;31.41;42.34
59493;BME280;45497;43.996;22.876;2022-07-29T05:57:21;101199.88;;;32.10;41.07
59493;BME280;45497;43.996;22.876;2022-07-29T05:59:47;101184.75;;;35.49;34.96
59493;BME280;45497;43.996;22.876;2022-07-29T06:02:13;101164.13;;;40.96;26.70
59493;BME280;45497;43.996;22.876;2022-07-29T06:04:38;101159.34;;;40.96;26.20
59493;BME280;45497;43.996;22.876;2022-07-29T06:07:04;101171.69;;;39.45;27.88
59493;BME280;45497;43.996;22.876;2022-07-29T06:09:32;101157.38;;;42.09;24.61
59493;BME280;45497;43.996;22.876;2022-07-29T06:11:58;101166.88;;;44.40;21.61
59493;BME280;45497;43.996;22.876;2022-07-29T06:14:24;101153.38;;;46.61;19.35
59493;BME280;45497;43.996;22.876;2022-07-29T06:16:50;101153.50;;;47.66;18.03
59493;BME280;45497;43.996;22.876;2022-07-29T06:19:16;101153.50;;;48.69;17.03
59493;BME280;45497;43.996;22.876;2022-07-29T06:21:45;101144.03;;;49.61;16.07
59493;BME280;45497;43.996;22.876;2022-07-29T06:24:12;101131.44;;;50.49;15.29
59493;BME280;45497;43.996;22.876;2022-07-29T06:26:39;101137.00;;;50.53;14.94
59493;BME280;45497;43.996;22.876;2022-07-29T06:29:06;101146.63;;;50.56;14.79
59493;BME280;45497;43.996;22.876;2022-07-29T06:31:32;101136.31;;;50.65;14.29
59493;BME280;45497;43.996;22.876;2022-07-29T06:33:57;101141.41;;;51.56;13.55
59493;BME280;45497;43.996;22.876;2022-07-29T06:36:23;101144.56;;;52.17;13.19
59493;BME280;45497;43.996;22.876;2022-07-29T06:38:48;101133.97;;;52.34;12.73
59493;BME280;45497;43.996;22.876;2022-07-29T06:41:14;101131.75;;;52.93;12.48
59493;BME280;45497;43.996;22.876;2022-07-29T06:43:43;101134.56;;;53.06;12.29
59493;BME280;45497;43.996;22.876;2022-07-29T06:46:14;101126.34;;;52.18;12.56
59493;BME280;45497;43.996;22.876;2022-07-29T06:48:41;101136.16;;;52.68;12.33
59493;BME280;45497;43.996;22.876;2022-07-29T06:51:10;101127.66;;;50.20;14.09
59493;BME280;45497;43.996;22.876;2022-07-29T06:53:37;101128.69;;;50.66;13.66
59493;BME280;45497;43.996;22.876;2022-07-29T06:56:04;101134.72;;;49.41;14.85
59493;BME280;45497;43.996;22.876;2022-07-29T06:58:30;101133.47;;;50.85;13.55
59493;BME280;45497;43.996;22.876;2022-07-29T07:00:58;101129.25;;;51.27;13.22
59493;BME280;45497;43.996;22.876;2022-07-29T07:03:24;101127.75;;;52.26;12.38
59493;BME280;45497;43.996;22.876;2022-07-29T07:05:52;101122.75;;;52.17;12.64
59493;BME280;45497;43.996;22.876;2022-07-29T07:08:17;101128.50;;;52.14;12.60
59493;BME280;45497;43.996;22.876;2022-07-29T07:10:44;101131.47;;;50.86;13.67
59493;BME280;45497;43.996;22.876;2022-07-29T07:13:10;101134.34;;;51.15;13.16
59493;BME280;45497;43.996;22.876;2022-07-29T07:15:36;101131.25;;;50.20;13.88
59493;BME280;45497;43.996;22.876;2022-07-29T07:18:04;101142.78;;;45.66;17.58
59493;BME280;45497;43.996;22.876;2022-07-29T07:20:30;101149.19;;;43.21;20.66
59493;BME280;45497;43.996;22.876;2022-07-29T07:22:55;101153.69;;;41.55;22.72
59493;BME280;45497;43.996;22.876;2022-07-29T07:25:22;101153.50;;;39.91;24.53
59493;BME280;45497;43.996;22.876;2022-07-29T07:27:47;101156.34;;;39.47;25.27
59493;BME280;45497;43.996;22.876;2022-07-29T07:30:13;101161.91;;;38.50;26.64
59493;BME280;45497;43.996;22.876;2022-07-29T07:32:38;101154.69;;;38.09;27.02
59493;BME280;45497;43.996;22.876;2022-07-29T07:35:05;101155.34;;;37.23;28.67
59493;BME280;45497;43.996;22.876;2022-07-29T07:37:31;101151.84;;;36.29;30.05
59493;BME280;45497;43.996;22.876;2022-07-29T07:39:57;101149.88;;;36.00;30.52
59493;BME280;45497;43.996;22.876;2022-07-29T07:42:23;101156.69;;;35.47;31.47
59493;BME280;45497;43.996;22.876;2022-07-29T07:44:49;101159.53;;;35.20;32.11
59493;BME280;45497;43.996;22.876;2022-07-29T07:47:15;101155.78;;;34.73;33.42
59493;BME280;45497;43.996;22.876;2022-07-29T07:49:48;101159.63;;;33.97;34.12
59493;BME280;45497;43.996;22.876;2022-07-29T07:52:15;101151.78;;;33.50;35.10
59493;BME280;45497;43.996;22.876;2022-07-29T07:55:04;101154.81;;;33.48;35.45
59493;BME280;45497;43.996;22.876;2022-07-29T07:57:29;101166.47;;;33.23;35.97
59493;BME280;45497;43.996;22.876;2022-07-29T07:59:55;101173.28;;;32.89;36.41
59493;BME280;45497;43.996;22.876;2022-07-29T08:02:20;101166.84;;;32.71;36.87
59493;BME280;45497;43.996;22.876;2022-07-29T08:04:46;101166.91;;;32.80;36.82
59493;BME280;45497;43.996;22.876;2022-07-29T08:07:11;101166.03;;;32.93;36.36
59493;BME280;45497;43.996;22.876;2022-07-29T08:09:39;101163.13;;;33.12;36.61
59493;BME280;45497;43.996;22.876;2022-07-29T08:12:05;101170.31;;;32.99;36.67
59493;BME280;45497;43.996;22.876;2022-07-29T08:14:31;101166.91;;;32.80;37.03
59493;BME280;45497;43.996;22.876;2022-07-29T08:16:57;101163.69;;;32.64;37.36
59493;BME280;45497;43.996;22.876;2022-07-29T08:19:23;101173.84;;;32.49;37.55
59493;BME280;45497;43.996;22.876;2022-07-29T08:21:48;101163.13;;;32.11;38.00
59493;BME280;45497;43.996;22.876;2022-07-29T08:24:14;101163.59;;;32.41;37.57
59493;BME280;45497;43.996;22.876;2022-07-29T08:26:59;101169.63;;;32.29;37.60
59493;BME280;45497;43.996;22.876;2022-07-29T08:29:25;101154.84;;;32.39;37.24
59493;BME280;45497;43.996;22.876;2022-07-29T08:31:50;101165.44;;;32.32;37.33
59493;BME280;45497;43.996;22.876;2022-07-29T08:34:16;101149.66;;;31.96;37.58
59493;BME280;45497;43.996;22.876;2022-07-29T08:36:41;101157.56;;;31.83;37.92
59493;BME280;45497;43.996;22.876;2022-07-29T08:39:07;101165.38;;;31.76;37.70
59493;BME280;45497;43.996;22.876;2022-07-29T08:41:32;101160.22;;;31.75;38.03
59493;BME280;45497;43.996;22.876;2022-07-29T08:43:58;101149.16;;;31.80;37.85
59493;BME280;45497;43.996;22.876;2022-07-29T08:46:25;101147.44;;;31.98;37.72
59493;BME280;45497;43.996;22.876;2022-07-29T08:48:50;101142.16;;;32.01;37.72
59493;BME280;45497;43.996;22.876;2022-07-29T08:51:18;101139.00;;;31.80;38.37
59493;BME280;45497;43.996;22.876;2022-07-29T08:53:45;101144.47;;;31.67;38.76
59493;BME280;45497;43.996;22.876;2022-07-29T08:57:50;101140.22;;;31.60;38.10
59493;BME280;45497;43.996;22.876;2022-07-29T09:00:17;101142.53;;;31.53;38.70
59493;BME280;45497;43.996;22.876;2022-07-29T09:02:45;101137.19;;;31.43;38.67
59493;BME280;45497;43.996;22.876;2022-07-29T09:05:13;101146.41;;;31.47;38.61
59493;BME280;45497;43.996;22.876;2022-07-29T09:07:39;101131.13;;;31.46;38.72
59493;BME280;45497;43.996;22.876;2022-07-29T09:10:05;101145.16;;;31.58;38.60
59493;BME280;45497;43.996;22.876;2022-07-29T09:12:31;101129.13;;;31.52;38.50
59493;BME280;45497;43.996;22.876;2022-07-29T09:14:56;101134.41;;;31.48;38.94
59493;BME280;45497;43.996;22.876;2022-07-29T09:20:11;101132.78;;;31.28;39.08
59493;BME280;45497;43.996;22.876;2022-07-29T09:22:37;101140.53;;;31.40;39.01
59493;BME280;45497;43.996;22.876;2022-07-29T09:25:03;101136.16;;;31.39;38.72
59493;BME280;45497;43.996;22.876;2022-07-29T09:27:28;101124.44;;;31.52;38.46
59493;BME280;45497;43.996;22.876;2022-07-29T09:30:05;101129.97;;;31.47;37.87
59493;BME280;45497;43.996;22.876;2022-07-29T09:34:41;101121.03;;;31.60;38.38
59493;BME280;45497;43.996;22.876;2022-07-29T09:37:06;101114.13;;;31.77;37.93
59493;BME280;45497;43.996;22.876;2022-07-29T09:39:35;101106.00;;;31.72;37.62
59493;BME280;45497;43.996;22.876;2022-07-29T09:42:05;101108.34;;;31.78;38.22
59493;BME280;45497;43.996;22.876;2022-07-29T09:44:49;101114.84;;;31.96;37.91
59493;BME280;45497;43.996;22.876;2022-07-29T09:48:21;101107.00;;;31.76;37.98
59493;BME280;45497;43.996;22.876;2022-07-29T09:50:47;101102.94;;;31.87;38.07
59493;BME280;45497;43.996;22.876;2022-07-29T09:53:36;101104.09;;;32.14;37.58
59493;BME280;45497;43.996;22.876;2022-07-29T09:56:03;101092.91;;;32.24;37.56
59493;BME280;45497;43.996;22.876;2022-07-29T09:58:29;101087.88;;;32.04;37.39
59493;BME280;45497;43.996;22.876;2022-07-29T10:00:55;101090.69;;;31.98;37.28
59493;BME280;45497;43.996;22.876;2022-07-29T10:03:21;101092.59;;;31.98;37.74
59493;BME280;45497;43.996;22.876;2022-07-29T10:06:07;101083.66;;;31.92;37.21
59493;BME280;45497;43.996;22.876;2022-07-29T10:08:33;101076.97;;;31.85;37.21
59493;BME280;45497;43.996;22.876;2022-07-29T10:11:25;101082.44;;;31.98;37.80
59493;BME280;45497;43.996;22.876;2022-07-29T10:13:50;101075.03;;;31.85;37.69
59493;BME280;45497;43.996;22.876;2022-07-29T10:16:16;101076.56;;;31.77;37.19
59493;BME280;45497;43.996;22.876;2022-07-29T10:18:43;101071.69;;;31.88;37.66
59493;BME280;45497;43.996;22.876;2022-07-29T10:21:09;101072.09;;;31.81;37.36
59493;BME280;45497;43.996;22.876;2022-07-29T10:23:35;101073.44;;;31.84;37.45
59493;BME280;45497;43.996;22.876;2022-07-29T10:26:02;101072.19;;;31.90;37.09
59493;BME280;45497;43.996;22.876;2022-07-29T10:28:31;101065.09;;;31.75;36.78
59493;BME280;45497;43.996;22.876;2022-07-29T10:31:02;101066.19;;;31.74;36.76
59493;BME280;45497;43.996;22.876;2022-07-29T10:33:51;101061.41;;;31.80;36.52
59493;BME280;45497;43.996;22.876;2022-07-29T10:36:38;101060.91;;;31.78;37.26
59493;BME280;45497;43.996;22.876;2022-07-29T10:42:10;101053.91;;;31.99;36.50
59493;BME280;45497;43.996;22.876;2022-07-29T10:44:40;101047.09;;;31.97;36.64
59493;BME280;45497;43.996;22.876;2022-07-29T10:47:06;101046.16;;;32.01;36.32
59493;BME280;45497;43.996;22.876;2022-07-29T10:49:32;101052.91;;;32.09;36.62
59493;BME280;45497;43.996;22.876;2022-07-29T10:57:19;101043.31;;;32.34;36.65
59493;BME280;45497;43.996;22.876;2022-07-29T11:05:17;101037.56;;;32.45;35.69
59493;BME280;45497;43.996;22.876;2022-07-29T11:10:45;101026.09;;;32.43;35.41
59493;BME280;45497;43.996;22.876;2022-07-29T11:13:11;101021.81;;;32.50;35.57
59493;BME280;45497;43.996;22.876;2022-07-29T11:16:02;101015.22;;;32.74;35.32
59493;BME280;45497;43.996;22.876;2022-07-29T11:18:30;101015.78;;;32.62;35.13
59493;BME280;45497;43.996;22.876;2022-07-29T11:20:55;101006.94;;;32.65;34.91
59493;BME280;45497;43.996;22.876;2022-07-29T11:23:31;101007.31;;;32.72;34.99
59493;BME280;45497;43.996;22.876;2022-07-29T11:29:03;101001.03;;;32.58;35.07
59493;BME280;45497;43.996;22.876;2022-07-29T11:31:44;101001.16;;;32.53;35.01
59493;BME280;45497;43.996;22.876;2022-07-29T11:34:26;100993.22;;;32.65;35.07
59493;BME280;45497;43.996;22.876;2022-07-29T11:47:31;100992.06;;;32.66;35.59
59493;BME280;45497;43.996;22.876;2022-07-29T11:49:58;100988.59;;;32.74;35.23
59493;BME280;45497;43.996;22.876;2022-07-29T11:52:35;100983.03;;;32.88;34.70
59493;BME280;45497;43.996;22.876;2022-07-29T11:55:04;100979.78;;;32.86;34.94
59493;BME280;45497;43.996;22.876;2022-07-29T11:57:31;100973.19;;;32.96;34.86
59493;BME280;45497;43.996;22.876;2022-07-29T11:59:59;100981.66;;;33.08;34.91
59493;BME280;45497;43.996;22.876;2022-07-29T12:02:38;100975.03;;;33.09;35.01
59493;BME280;45497;43.996;22.876;2022-07-29T12:05:04;100961.78;;;33.11;35.07
59493;BME280;45497;43.996;22.876;2022-07-29T12:07:31;100965.25;;;33.26;35.28
59493;BME280;45497;43.996;22.876;2022-07-29T12:09:57;100971.81;;;33.39;34.34
59493;BME280;45497;43.996;22.876;2022-07-29T12:12:23;100962.41;;;33.40;34.17
59493;BME280;45497;43.996;22.876;2022-07-29T12:14:49;100956.13;;;33.39;34.43
59493;BME280;45497;43.996;22.876;2022-07-29T12:17:29;100962.59;;;33.43;33.82
59493;BME280;45497;43.996;22.876;2022-07-29T12:20:00;100960.81;;;33.39;33.17
59493;BME280;45497;43.996;22.876;2022-07-29T12:22:33;100951.59;;;33.43;33.38
59493;BME280;45497;43.996;22.876;2022-07-29T12:25:07;100949.47;;;33.40;33.11
59493;BME280;45497;43.996;22.876;2022-07-29T12:27:33;100944.16;;;33.35;33.69
59493;BME280;45497;43.996;22.876;2022-07-29T12:30:00;100941.22;;;33.31;33.76
59493;BME280;45497;43.996;22.876;2022-07-29T12:32:46;100953.81;;;33.32;34.03
59493;BME280;45497;43.996;22.876;2022-07-29T12:35:18;100943.00;;;33.36;34.34
59493;BME280;45497;43.996;22.876;2022-07-29T12:37:46;100928.94;;;33.38;34.04
59493;BME280;45497;43.996;22.876;2022-07-29T12:40:18;100924.56;;;33.37;33.64
59493;BME280;45497;43.996;22.876;2022-07-29T12:45:38;100927.34;;;33.45;33.79
59493;BME280;45497;43.996;22.876;2022-07-29T12:48:05;100929.31;;;33.53;33.42
59493;BME280;45497;43.996;22.876;2022-07-29T12:50:31;100923.66;;;33.59;33.84
59493;BME280;45497;43.996;22.876;2022-07-29T12:53:12;100919.13;;;33.63;33.15
59493;BME280;45497;43.996;22.876;2022-07-29T12:55:43;100913.84;;;33.66;32.89
59493;BME280;45497;43.996;22.876;2022-07-29T12:58:09;100913.53;;;33.77;33.07
59493;BME280;45497;43.996;22.876;2022-07-29T13:00:35;100907.03;;;33.72;32.68
59493;BME280;45497;43.996;22.876;2022-07-29T13:03:00;100903.19;;;33.82;32.97
59493;BME280;45497;43.996;22.876;2022-07-29T13:05:45;100898.16;;;34.02;32.85
59493;BME280;45497;43.996;22.876;2022-07-29T13:11:46;100895.56;;;34.14;32.80
59493;BME280;45497;43.996;22.876;2022-07-29T13:14:14;100890.91;;;34.23;32.81
59493;BME280;45497;43.996;22.876;2022-07-29T13:19:47;100891.53;;;34.20;32.39
59493;BME280;45497;43.996;22.876;2022-07-29T13:22:18;100891.53;;;34.20;32.22
59493;BME280;45497;43.996;22.876;2022-07-29T13:24:57;100884.88;;;34.21;32.25
59493;BME280;45497;43.996;22.876;2022-07-29T13:27:28;100884.88;;;34.30;32.46
59493;BME280;45497;43.996;22.876;2022-07-29T13:29:56;100891.03;;;34.27;32.19
59493;BME280;45497;43.996;22.876;2022-07-29T13:32:23;100887.31;;;34.14;31.90
59493;BME280;45497;43.996;22.876;2022-07-29T13:34:49;100884.88;;;34.13;32.36
59493;BME280;45497;43.996;22.876;2022-07-29T13:37:15;100875.97;;;34.16;32.39
59493;BME280;45497;43.996;22.876;2022-07-29T13:39:42;100868.53;;;34.16;32.18
59493;BME280;45497;43.996;22.876;2022-07-29T13:42:07;100872.72;;;34.14;32.11
59493;BME280;45497;43.996;22.876;2022-07-29T13:44:33;100871.47;;;34.20;32.60
59493;BME280;45497;43.996;22.876;2022-07-29T13:46:59;100868.88;;;34.23;32.03
59493;BME280;45497;43.996;22.876;2022-07-29T13:49:25;100859.94;;;34.26;32.52